Time;durP1;ratioP1;P1;durP2;ratioP2;P2;SDS_P1;SDS_P2;PMS_P1;PMS_P2;Temp;Humidity;BMP_temperature;BMP_pressure;BME280_temperature;BME280_humidity;BME280_pressure;Samples;Min_cycle;Max_cycle;Signal;HPM_P1;HPM_P2
2021/09/17 00:00:14;;;;;;;6.60;3.23;;;17.20;1.00;;;;;;5057250;28;20489;-84
2021/09/17 00:02:41;;;;;;;4.20;2.50;;;17.20;1.00;;;;;;5057587;28;20898;-84
2021/09/17 00:05:09;;;;;;;3.50;2.60;;;17.20;1.00;;;;;;5057518;28;21055;-83
2021/09/17 00:07:37;;;;;;;3.90;2.47;;;17.10;1.00;;;;;;5059743;28;20486;-83
2021/09/17 00:10:04;;;;;;;5.43;2.97;;;17.20;1.00;;;;;;5057051;28;21933;-83
2021/09/17 00:12:32;;;;;;;4.90;2.63;;;17.20;1.00;;;;;;5062512;28;20513;-83
2021/09/17 00:14:58;;;;;;;4.87;2.80;;;17.20;1.00;;;;;;5059745;28;20458;-82
2021/09/17 00:17:25;;;;;;;4.13;2.70;;;17.20;1.00;;;;;;5057885;28;20448;-84
2021/09/17 00:19:53;;;;;;;3.87;2.27;;;17.20;1.00;;;;;;5059979;28;20486;-82
2021/09/17 00:22:20;;;;;;;4.53;3.10;;;17.20;1.00;;;;;;5057662;28;20411;-83
2021/09/17 00:24:48;;;;;;;3.53;3.00;;;17.20;1.00;;;;;;5058085;28;20522;-81
2021/09/17 00:27:14;;;;;;;5.27;2.90;;;17.20;1.00;;;;;;5056271;28;20460;-82
2021/09/17 00:29:41;;;;;;;5.27;2.47;;;17.20;1.00;;;;;;5060058;28;20551;-83
2021/09/17 00:32:08;;;;;;;5.87;2.60;;;17.20;1.00;;;;;;5059411;28;20543;-84
2021/09/17 00:34:35;;;;;;;3.57;2.60;;;17.20;1.00;;;;;;5055388;28;20479;-82
2021/09/17 00:37:01;;;;;;;7.33;3.57;;;17.20;1.00;;;;;;5055933;28;21479;-83
2021/09/17 00:39:28;;;;;;;3.40;2.63;;;17.20;1.00;;;;;;5059365;28;20569;-83
2021/09/17 00:41:58;;;;;;;3.50;2.70;;;17.20;1.00;;;;;;5057330;28;20460;-82
2021/09/17 00:44:26;;;;;;;3.47;2.57;;;17.20;1.00;;;;;;5054279;28;20459;-84
2021/09/17 00:46:54;;;;;;;2.87;2.57;;;17.10;1.00;;;;;;5053376;28;20512;-82
2021/09/17 00:49:22;;;;;;;5.87;2.73;;;17.10;1.00;;;;;;5057182;28;20438;-82
2021/09/17 00:51:49;;;;;;;3.80;2.70;;;17.10;1.00;;;;;;5049059;28;20453;-83
2021/09/17 00:54:17;;;;;;;4.33;2.67;;;17.10;1.00;;;;;;5053546;28;20989;-82
2021/09/17 00:56:43;;;;;;;3.47;2.50;;;17.10;1.00;;;;;;5056173;28;20542;-83
2021/09/17 00:59:12;;;;;;;4.17;2.50;;;17.10;1.00;;;;;;5057779;28;20554;-83
2021/09/17 01:01:39;;;;;;;4.77;2.97;;;17.10;1.00;;;;;;5062197;28;20526;-83
2021/09/17 01:04:07;;;;;;;3.43;2.43;;;17.10;1.00;;;;;;5052801;28;20432;-82
2021/09/17 01:06:33;;;;;;;2.97;2.50;;;17.00;1.00;;;;;;5059594;28;20449;-83
2021/09/17 01:09:01;;;;;;;4.30;2.80;;;17.00;1.00;;;;;;5055059;28;21573;-81
2021/09/17 01:11:28;;;;;;;4.77;3.20;;;17.00;1.00;;;;;;5057592;28;20513;-84
2021/09/17 01:13:55;;;;;;;4.20;2.63;;;17.10;1.00;;;;;;5056655;28;20462;-83
2021/09/17 01:16:23;;;;;;;3.77;2.73;;;17.00;1.00;;;;;;5058186;28;20471;-81
2021/09/17 01:18:51;;;;;;;4.27;3.10;;;17.00;1.00;;;;;;5068504;28;20468;-82
2021/09/17 01:21:19;;;;;;;4.87;3.30;;;17.00;1.00;;;;;;5051692;28;20501;-83
2021/09/17 01:23:46;;;;;;;5.27;2.67;;;17.00;1.00;;;;;;5051544;28;20448;-82
2021/09/17 01:26:12;;;;;;;4.17;2.33;;;17.00;1.00;;;;;;5053468;28;20450;-81
2021/09/17 01:28:39;;;;;;;3.40;2.67;;;17.00;1.00;;;;;;5052530;28;20478;-83
2021/09/17 01:31:06;;;;;;;3.53;3.00;;;16.90;1.00;;;;;;5054427;28;20453;-82
2021/09/17 01:33:33;;;;;;;3.30;2.60;;;16.90;1.00;;;;;;5049641;28;20463;-82
2021/09/17 01:36:01;;;;;;;4.53;2.70;;;16.90;1.00;;;;;;5052447;28;21016;-82
2021/09/17 01:38:32;;;;;;;5.67;2.87;;;17.00;1.00;;;;;;5051232;28;20469;-83
2021/09/17 01:40:59;;;;;;;2.87;2.57;;;17.00;1.00;;;;;;5051398;28;20440;-83
2021/09/17 01:43:27;;;;;;;5.50;2.40;;;17.00;1.00;;;;;;5052050;28;20422;-82
2021/09/17 01:45:57;;;;;;;5.77;2.30;;;16.90;1.00;;;;;;5050814;28;20451;-82
2021/09/17 01:48:26;;;;;;;5.60;2.57;;;17.00;1.00;;;;;;5053255;28;20534;-83
2021/09/17 01:50:53;;;;;;;3.57;2.60;;;17.00;1.00;;;;;;5054175;28;20494;-82
2021/09/17 01:53:20;;;;;;;4.60;3.00;;;17.00;1.00;;;;;;5050148;28;20457;-83
2021/09/17 01:55:50;;;;;;;4.30;2.30;;;16.90;1.00;;;;;;5053111;28;20450;-81
2021/09/17 01:58:17;;;;;;;3.90;2.80;;;17.00;1.00;;;;;;5055255;28;20565;-83
2021/09/17 02:00:44;;;;;;;6.73;2.83;;;16.90;1.00;;;;;;5050340;28;20455;-81
2021/09/17 02:03:11;;;;;;;5.10;2.30;;;16.90;1.00;;;;;;5051434;28;20487;-84
2021/09/17 02:05:37;;;;;;;3.60;2.10;;;16.80;1.00;;;;;;5056586;28;20509;-83
2021/09/17 02:08:04;;;;;;;4.40;4.00;;;16.90;1.00;;;;;;5052703;28;20638;-82
2021/09/17 02:10:31;;;;;;;5.30;2.57;;;16.90;1.00;;;;;;5049239;28;21198;-82
2021/09/17 02:12:59;;;;;;;3.97;2.50;;;16.90;1.00;;;;;;5046934;28;20447;-82
2021/09/17 02:15:26;;;;;;;5.70;2.40;;;16.90;1.00;;;;;;5050535;28;20625;-83
2021/09/17 02:17:53;;;;;;;2.70;1.80;;;16.90;1.00;;;;;;5051611;28;22190;-82
2021/09/17 02:20:20;;;;;;;4.20;2.63;;;16.90;1.00;;;;;;5053927;28;20476;-82
2021/09/17 02:22:46;;;;;;;2.80;2.10;;;16.90;1.00;;;;;;5054388;28;20524;-82
2021/09/17 02:25:13;;;;;;;5.50;2.50;;;16.90;1.00;;;;;;5055865;28;20506;-83
2021/09/17 02:27:40;;;;;;;5.73;2.20;;;16.90;1.00;;;;;;5054278;28;20949;-82
2021/09/17 02:30:10;;;;;;;3.87;1.80;;;16.80;1.00;;;;;;5052259;28;20480;-82
2021/09/17 02:32:37;;;;;;;3.50;2.27;;;16.80;1.00;;;;;;5052353;28;20557;-83
2021/09/17 02:35:05;;;;;;;3.73;2.53;;;16.80;1.00;;;;;;5052038;28;20463;-82
2021/09/17 02:37:31;;;;;;;7.57;2.93;;;16.80;1.00;;;;;;5056853;28;20504;-82
2021/09/17 02:39:58;;;;;;;5.53;2.13;;;16.80;1.00;;;;;;5054551;28;20563;-82
2021/09/17 02:42:25;;;;;;;3.80;2.97;;;16.80;1.00;;;;;;5049958;28;20559;-82
2021/09/17 02:44:53;;;;;;;4.57;2.43;;;16.80;1.00;;;;;;5051180;28;20519;-82
2021/09/17 02:47:21;;;;;;;3.53;2.93;;;16.80;1.00;;;;;;5052420;28;20506;-83
2021/09/17 02:49:48;;;;;;;3.60;2.67;;;16.70;1.00;;;;;;5056095;28;20461;-83
2021/09/17 02:52:15;;;;;;;6.40;2.80;;;16.60;1.00;;;;;;5048438;28;20513;-83
2021/09/17 02:54:42;;;;;;;3.57;2.23;;;16.40;1.00;;;;;;5045786;28;20457;-83
2021/09/17 02:57:08;;;;;;;3.70;2.77;;;16.40;1.00;;;;;;5049337;28;20544;-83
2021/09/17 02:59:35;;;;;;;3.20;2.30;;;16.30;1.00;;;;;;5052371;28;20454;-83
2021/09/17 03:02:02;;;;;;;3.97;2.77;;;16.30;1.00;;;;;;5046752;28;21107;-82
2021/09/17 03:04:31;;;;;;;6.40;2.80;;;16.30;1.00;;;;;;5050006;28;20519;-84
2021/09/17 03:06:58;;;;;;;5.67;3.30;;;16.30;1.00;;;;;;5047922;28;20558;-81
2021/09/17 03:09:24;;;;;;;4.93;2.50;;;16.40;1.00;;;;;;5052727;28;24432;-81
2021/09/17 03:11:52;;;;;;;4.30;2.70;;;16.40;1.00;;;;;;5047759;28;20419;-82
2021/09/17 03:14:19;;;;;;;3.70;2.70;;;16.50;1.00;;;;;;5049610;28;20404;-82
2021/09/17 03:16:45;;;;;;;5.20;2.70;;;16.50;1.00;;;;;;5046571;28;20439;-82
2021/09/17 03:19:12;;;;;;;2.60;2.00;;;16.50;1.00;;;;;;5051936;28;20475;-83
2021/09/17 03:21:41;;;;;;;2.60;2.30;;;16.50;1.00;;;;;;5051346;28;20468;-83
2021/09/17 03:24:07;;;;;;;3.53;2.50;;;16.50;1.00;;;;;;5059733;28;20425;-83
2021/09/17 03:26:34;;;;;;;3.40;2.90;;;16.40;1.00;;;;;;5062709;28;20492;-83
2021/09/17 03:29:01;;;;;;;3.37;2.83;;;16.30;1.00;;;;;;5057096;28;20413;-83
2021/09/17 03:31:28;;;;;;;6.43;2.80;;;16.10;1.00;;;;;;5059703;28;20449;-83
2021/09/17 03:33:58;;;;;;;4.80;3.40;;;16.10;1.00;;;;;;5058624;28;20421;-83
2021/09/17 03:36:25;;;;;;;4.17;2.40;;;16.00;1.00;;;;;;5055515;28;20484;-84
2021/09/17 03:38:53;;;;;;;3.37;2.97;;;16.00;1.00;;;;;;5056481;28;20426;-83
2021/09/17 03:41:20;;;;;;;3.87;2.60;;;16.00;1.00;;;;;;5056370;28;20457;-83
2021/09/17 03:43:46;;;;;;;3.10;2.80;;;15.90;1.00;;;;;;5053711;28;20466;-83
2021/09/17 03:46:13;;;;;;;6.53;3.83;;;15.90;1.00;;;;;;5053142;28;20468;-83
2021/09/17 03:48:40;;;;;;;4.20;2.67;;;15.90;1.00;;;;;;5054834;28;20529;-84
2021/09/17 03:51:07;;;;;;;4.60;2.70;;;15.90;1.00;;;;;;5057272;28;20425;-83
2021/09/17 03:53:33;;;;;;;3.90;3.37;;;15.90;1.00;;;;;;5050442;28;20527;-83
2021/09/17 03:56:01;;;;;;;3.40;2.60;;;15.90;1.00;;;;;;5057764;28;20539;-84
2021/09/17 03:58:28;;;;;;;4.43;3.07;;;16.00;1.00;;;;;;5059298;28;20443;-83
2021/09/17 04:00:55;;;;;;;4.00;3.60;;;16.00;1.00;;;;;;5055017;28;20500;-83
2021/09/17 04:03:21;;;;;;;3.70;3.03;;;16.00;1.00;;;;;;5054812;28;24117;-83
2021/09/17 04:05:48;;;;;;;5.13;3.07;;;16.10;1.00;;;;;;5058417;28;20542;-82
2021/09/17 04:08:15;;;;;;;4.77;2.80;;;16.10;1.00;;;;;;5060768;28;20565;-79
2021/09/17 04:10:41;;;;;;;3.97;3.03;;;16.10;1.00;;;;;;5055333;28;22311;-79
2021/09/17 04:13:09;;;;;;;3.07;2.50;;;16.10;1.00;;;;;;5055485;28;20444;-80
2021/09/17 04:15:36;;;;;;;4.20;3.03;;;16.20;1.00;;;;;;5056344;28;20509;-80
2021/09/17 04:18:02;;;;;;;5.83;2.57;;;16.20;1.00;;;;;;5056126;28;20561;-80
2021/09/17 04:20:29;;;;;;;4.17;2.87;;;16.10;1.00;;;;;;5052759;28;20440;-80
2021/09/17 04:22:56;;;;;;;5.53;2.63;;;16.00;1.00;;;;;;5050103;28;20445;-79
2021/09/17 04:25:23;;;;;;;5.40;2.17;;;15.90;1.00;;;;;;5060600;28;20518;-81
2021/09/17 04:27:50;;;;;;;2.70;2.40;;;15.80;1.00;;;;;;5069295;28;20451;-79
2021/09/17 04:30:18;;;;;;;4.20;1.97;;;15.70;1.00;;;;;;5074701;28;20451;-80
2021/09/17 04:32:46;;;;;;;2.60;2.13;;;15.60;1.00;;;;;;5075376;28;20445;-79
2021/09/17 04:35:14;;;;;;;3.77;2.27;;;15.60;1.00;;;;;;5077562;28;21520;-79
2021/09/17 04:37:41;;;;;;;4.53;2.67;;;15.60;1.00;;;;;;5061644;28;20456;-80
2021/09/17 04:40:10;;;;;;;3.23;2.20;;;15.60;1.00;;;;;;5050083;28;20467;-82
2021/09/17 04:42:37;;;;;;;3.47;2.20;;;15.60;1.00;;;;;;5059939;28;21319;-81
2021/09/17 04:45:05;;;;;;;3.63;2.10;;;15.60;1.00;;;;;;5085308;28;20447;-80
2021/09/17 04:47:35;;;;;;;2.70;2.20;;;15.70;1.00;;;;;;5084128;28;21070;-82
2021/09/17 04:50:03;;;;;;;2.53;2.13;;;15.70;1.00;;;;;;5082023;28;20457;-81
2021/09/17 04:52:36;;;;;;;3.10;2.50;;;15.70;1.00;;;;;;5083556;28;20393;-81
2021/09/17 04:55:06;;;;;;;3.63;1.80;;;15.80;1.00;;;;;;5083150;28;20468;-83
2021/09/17 04:57:33;;;;;;;3.23;1.87;;;15.80;1.00;;;;;;5061455;28;20462;-82
2021/09/17 05:00:10;;;;;;;3.87;2.00;;;15.80;1.00;;;;;;5062423;28;20453;-85
2021/09/17 05:02:39;;;;;;;2.97;1.93;;;15.90;1.00;;;;;;5055434;28;21365;-82
2021/09/17 05:05:12;;;;;;;3.60;2.03;;;15.90;1.00;;;;;;5075531;28;20458;-82
2021/09/17 05:07:39;;;;;;;4.23;1.90;;;15.90;1.00;;;;;;5080920;28;20544;-82
2021/09/17 05:10:09;;;;;;;3.97;2.13;;;16.00;1.00;;;;;;5078623;28;20445;-81
2021/09/17 05:12:38;;;;;;;2.53;1.53;;;16.00;1.00;;;;;;5082251;28;20408;-81
2021/09/17 05:15:07;;;;;;;3.73;2.50;;;15.90;1.00;;;;;;5058226;28;20462;-84
2021/09/17 05:17:33;;;;;;;3.73;2.73;;;16.00;1.00;;;;;;5056437;28;21020;-77
2021/09/17 05:20:01;;;;;;;3.50;2.20;;;16.00;1.00;;;;;;5048871;28;20468;-77
2021/09/17 05:22:29;;;;;;;4.93;1.83;;;16.00;1.00;;;;;;5046326;28;20569;-77
2021/09/17 05:24:57;;;;;;;4.77;2.20;;;16.10;1.00;;;;;;5042246;28;20486;-83
2021/09/17 05:27:25;;;;;;;2.13;1.40;;;16.00;1.00;;;;;;5048335;28;20541;-77
2021/09/17 05:29:52;;;;;;;3.23;1.67;;;16.00;1.00;;;;;;5057910;28;20540;-77
2021/09/17 05:32:19;;;;;;;3.70;1.60;;;16.00;1.00;;;;;;5053844;28;20445;-77
2021/09/17 05:34:46;;;;;;;2.40;1.70;;;16.00;1.00;;;;;;5047660;28;20493;-78
2021/09/17 05:37:14;;;;;;;4.80;2.17;;;16.00;1.00;;;;;;5046791;28;20554;-77
2021/09/17 05:39:40;;;;;;;2.37;1.57;;;16.00;1.00;;;;;;5049238;28;20549;-77
2021/09/17 05:42:07;;;;;;;2.60;1.60;;;15.90;1.00;;;;;;5048642;28;20476;-76
2021/09/17 05:44:34;;;;;;;3.13;2.00;;;15.90;1.00;;;;;;5047085;28;21044;-78
2021/09/17 05:47:01;;;;;;;4.47;1.50;;;15.90;1.00;;;;;;5058258;28;20531;-78
2021/09/17 05:49:27;;;;;;;4.27;1.43;;;15.80;1.00;;;;;;5049467;28;21218;-78
2021/09/17 05:51:54;;;;;;;5.10;2.00;;;15.80;1.00;;;;;;5050992;28;20450;-77
2021/09/17 05:54:22;;;;;;;4.10;2.20;;;15.80;1.00;;;;;;5047163;28;20503;-77
2021/09/17 05:56:49;;;;;;;2.30;1.57;;;15.70;1.00;;;;;;5045038;28;20455;-78
2021/09/17 05:59:16;;;;;;;2.40;1.23;;;15.60;1.00;;;;;;5047881;28;20523;-78
2021/09/17 06:01:42;;;;;;;2.40;1.47;;;15.60;1.00;;;;;;5051606;28;20414;-77
2021/09/17 06:04:09;;;;;;;4.00;1.73;;;15.60;1.00;;;;;;5050183;28;20546;-78
2021/09/17 06:06:36;;;;;;;3.23;1.30;;;15.60;1.00;;;;;;5048938;28;20436;-77
2021/09/17 06:09:03;;;;;;;3.63;1.80;;;15.60;1.00;;;;;;5051978;28;20474;-78
2021/09/17 06:11:31;;;;;;;7.53;2.23;;;15.60;1.00;;;;;;5052000;28;20534;-78
2021/09/17 06:13:57;;;;;;;3.10;1.07;;;15.50;1.00;;;;;;5046396;28;20470;-78
2021/09/17 06:16:24;;;;;;;3.30;1.30;;;15.40;1.00;;;;;;5056311;28;20515;-77
2021/09/17 06:18:51;;;;;;;2.00;1.30;;;15.50;1.00;;;;;;5064947;28;21397;-78
2021/09/17 06:21:18;;;;;;;2.47;1.07;;;15.50;1.00;;;;;;5073579;28;20525;-78
2021/09/17 06:23:44;;;;;;;1.67;0.80;;;15.50;1.00;;;;;;5077892;28;20443;-77
2021/09/17 06:26:11;;;;;;;2.33;0.97;;;15.50;1.00;;;;;;5073327;28;20532;-77
2021/09/17 06:28:39;;;;;;;1.63;0.90;;;15.50;1.00;;;;;;5075201;28;20453;-77
2021/09/17 06:31:06;;;;;;;1.70;0.93;;;15.50;1.00;;;;;;5072643;28;20542;-78
2021/09/17 06:33:32;;;;;;;2.33;1.13;;;15.50;1.00;;;;;;5074268;28;20469;-77
2021/09/17 06:35:59;;;;;;;3.17;1.07;;;15.60;1.00;;;;;;5075220;28;21012;-79
2021/09/17 06:38:26;;;;;;;2.03;1.07;;;15.70;1.00;;;;;;5078144;28;20529;-79
2021/09/17 06:40:52;;;;;;;3.17;1.10;;;15.70;1.00;;;;;;5072205;28;20411;-80
2021/09/17 06:43:19;;;;;;;6.17;1.13;;;15.70;1.00;;;;;;5072434;28;20449;-78
2021/09/17 06:45:47;;;;;;;2.73;1.70;;;15.80;1.00;;;;;;5066936;28;20526;-79
2021/09/17 06:48:16;;;;;;;4.23;2.67;;;15.80;1.00;;;;;;5062202;28;20485;-81
2021/09/17 06:50:43;;;;;;;2.17;0.90;;;15.90;1.00;;;;;;5062198;28;20453;-79
2021/09/17 06:53:10;;;;;;;1.97;0.83;;;15.90;1.00;;;;;;5056975;28;20433;-77
2021/09/17 06:55:37;;;;;;;2.10;0.83;;;16.00;1.00;;;;;;5057949;28;20423;-77
2021/09/17 06:58:06;;;;;;;2.30;0.93;;;16.10;1.00;;;;;;5060583;28;20452;-78
2021/09/17 07:00:35;;;;;;;3.10;0.90;;;16.20;1.00;;;;;;5056839;28;20466;-77
2021/09/17 07:03:07;;;;;;;2.83;1.10;;;16.30;1.00;;;;;;5055822;28;20507;-76
2021/09/17 07:05:34;;;;;;;6.60;1.13;;;16.30;1.00;;;;;;5065130;28;20439;-78
2021/09/17 07:08:01;;;;;;;3.47;1.57;;;16.20;1.00;;;;;;5061572;28;21059;-78
2021/09/17 07:10:29;;;;;;;4.20;3.53;;;16.20;1.00;;;;;;5057085;28;20632;-77
2021/09/17 07:12:56;;;;;;;1.83;0.80;;;16.20;1.00;;;;;;5058407;28;20547;-77
2021/09/17 07:15:22;;;;;;;4.23;0.90;;;16.20;1.00;;;;;;5068649;28;20545;-79
2021/09/17 07:17:49;;;;;;;2.73;0.90;;;16.20;1.00;;;;;;5070151;28;20532;-78
2021/09/17 07:20:17;;;;;;;1.50;0.77;;;16.30;1.00;;;;;;5067268;28;20507;-78
2021/09/17 07:22:44;;;;;;;1.63;0.70;;;16.30;1.00;;;;;;5084882;28;20657;-77
2021/09/17 07:25:12;;;;;;;2.33;1.00;;;16.30;1.00;;;;;;5087175;28;20415;-77
2021/09/17 07:27:39;;;;;;;2.37;0.90;;;16.40;1.00;;;;;;5090095;28;20449;-77
2021/09/17 07:30:07;;;;;;;2.80;1.10;;;16.60;1.00;;;;;;5093182;28;20444;-77
2021/09/17 07:32:34;;;;;;;2.00;0.80;;;16.70;1.00;;;;;;5082550;28;20543;-77
2021/09/17 07:35:01;;;;;;;2.90;0.90;;;16.70;1.00;;;;;;5082008;28;20431;-76
2021/09/17 07:37:29;;;;;;;2.23;0.97;;;16.70;1.00;;;;;;5080257;28;20414;-76
2021/09/17 07:39:56;;;;;;;1.97;1.00;;;16.90;1.00;;;;;;5078833;28;20418;-76
2021/09/17 07:42:23;;;;;;;2.53;0.97;;;16.90;1.00;;;;;;5083006;28;20450;-76
2021/09/17 07:44:50;;;;;;;2.00;1.03;;;16.90;1.00;;;;;;5083593;28;20809;-76
2021/09/17 07:47:17;;;;;;;2.17;1.10;;;16.90;1.00;;;;;;5081566;28;20477;-76
2021/09/17 07:49:43;;;;;;;4.33;1.10;;;16.90;1.00;;;;;;5083097;28;20438;-76
2021/09/17 07:52:10;;;;;;;2.03;0.90;;;16.90;1.00;;;;;;5080735;28;20680;-77
2021/09/17 07:54:38;;;;;;;4.73;1.00;;;16.90;1.00;;;;;;5076046;28;20419;-76
2021/09/17 07:57:05;;;;;;;3.93;1.00;;;16.90;1.00;;;;;;5080187;28;20449;-76
2021/09/17 07:59:32;;;;;;;1.30;0.60;;;16.90;1.00;;;;;;5082622;28;20459;-76
2021/09/17 08:01:59;;;;;;;3.23;1.07;;;16.80;1.00;;;;;;5082283;28;20497;-77
2021/09/17 08:04:26;;;;;;;1.40;0.83;;;16.90;1.00;;;;;;5076407;28;20422;-76
2021/09/17 08:06:52;;;;;;;2.03;0.80;;;17.00;1.00;;;;;;5076607;28;20565;-76
2021/09/17 08:09:19;;;;;;;2.37;1.27;;;17.20;1.00;;;;;;5075447;28;20461;-76
2021/09/17 08:11:47;;;;;;;2.37;0.77;;;17.30;1.00;;;;;;5072860;28;20463;-77
2021/09/17 08:14:13;;;;;;;2.20;0.83;;;17.40;1.00;;;;;;5078970;28;21379;-77
2021/09/17 08:16:40;;;;;;;3.70;0.93;;;17.60;1.00;;;;;;5074805;28;20980;-76
2021/09/17 08:19:07;;;;;;;2.17;0.77;;;17.80;1.00;;;;;;5083359;28;20443;-76
2021/09/17 08:21:41;;;;;;;2.20;1.03;;;17.90;1.00;;;;;;5081861;28;20479;-77
2021/09/17 08:24:13;;;;;;;2.00;0.80;;;18.00;1.00;;;;;;5081690;28;20442;-76
2021/09/17 08:26:41;;;;;;;2.60;0.80;;;18.00;1.00;;;;;;5076861;28;20445;-76
2021/09/17 08:29:09;;;;;;;4.23;0.70;;;18.10;1.00;;;;;;5068159;28;20454;-76
2021/09/17 08:31:36;;;;;;;2.87;0.87;;;18.00;1.00;;;;;;5073720;28;20457;-76
2021/09/17 08:34:02;;;;;;;3.80;0.80;;;18.10;1.00;;;;;;5071495;28;20443;-75
2021/09/17 08:36:29;;;;;;;1.70;0.80;;;18.30;1.00;;;;;;5069832;28;20411;-77
2021/09/17 08:38:56;;;;;;;2.90;0.90;;;18.50;1.00;;;;;;5080209;28;20428;-77
2021/09/17 08:41:23;;;;;;;3.10;0.60;;;18.50;1.00;;;;;;5078338;28;20575;-77
2021/09/17 08:43:50;;;;;;;1.60;1.00;;;18.50;1.00;;;;;;5079206;28;20434;-76
2021/09/17 08:46:18;;;;;;;1.63;0.43;;;18.50;1.00;;;;;;5079344;28;20435;-76
2021/09/17 08:48:48;;;;;;;1.40;0.70;;;18.40;1.00;;;;;;5073231;28;20573;-76
2021/09/17 08:51:15;;;;;;;4.00;0.60;;;18.50;1.00;;;;;;5079858;28;20533;-77
2021/09/17 08:53:42;;;;;;;1.77;0.50;;;18.60;1.00;;;;;;5073025;28;20438;-78
2021/09/17 08:56:11;;;;;;;1.43;0.70;;;18.60;1.00;;;;;;5064648;28;20509;-78
2021/09/17 08:58:38;;;;;;;1.93;0.50;;;18.50;1.00;;;;;;5061191;28;20542;-77
2021/09/17 09:01:04;;;;;;;1.83;0.67;;;18.50;1.00;;;;;;5061686;28;20468;-77
2021/09/17 09:03:37;;;;;;;1.60;0.70;;;18.60;1.00;;;;;;5057840;28;20477;-77
2021/09/17 09:06:12;;;;;;;2.80;0.80;;;18.60;1.00;;;;;;5055582;28;20439;-77
2021/09/17 09:08:40;;;;;;;4.03;0.90;;;18.70;1.00;;;;;;5058573;28;20442;-79
2021/09/17 09:11:15;;;;;;;2.90;0.73;;;18.70;1.00;;;;;;5054964;28;22567;-77
2021/09/17 09:14:07;;;;;;;1.53;0.70;;;18.80;1.00;;;;;;5052462;28;20459;-77
2021/09/17 09:16:36;;;;;;;1.40;0.50;;;18.80;1.00;;;;;;5056981;28;20462;-77
2021/09/17 09:19:28;;;;;;;1.40;0.70;;;18.80;1.00;;;;;;5057880;28;20997;-77
2021/09/17 09:22:10;;;;;;;4.77;0.93;;;18.90;1.00;;;;;;5070616;28;20541;-78
2021/09/17 09:24:40;;;;;;;2.40;0.70;;;19.00;1.00;;;;;;5054621;28;20511;-76
2021/09/17 09:27:11;;;;;;;3.20;0.90;;;19.00;1.00;;;;;;5056924;28;20506;-78
2021/09/17 09:29:40;;;;;;;1.93;0.70;;;19.00;1.00;;;;;;5053877;28;20663;-78
2021/09/17 09:32:07;;;;;;;1.60;0.70;;;19.20;1.00;;;;;;5055250;28;20468;-78
2021/09/17 09:34:53;;;;;;;1.50;1.10;;;19.20;1.00;;;;;;5053730;28;20441;-78
2021/09/17 09:37:22;;;;;;;2.30;0.70;;;18.90;1.00;;;;;;5052261;28;20488;-78
2021/09/17 09:39:54;;;;;;;2.40;1.13;;;18.80;1.00;;;;;;5055191;28;20573;-78
2021/09/17 09:42:28;;;;;;;2.33;1.10;;;18.80;1.00;;;;;;5054101;28;20483;-78
2021/09/17 09:45:25;;;;;;;3.63;1.77;;;19.00;1.00;;;;;;5051483;28;20732;-78
2021/09/17 09:47:54;;;;;;;2.70;1.60;;;19.10;1.00;;;;;;5000954;28;21426;-77
2021/09/17 09:50:24;;;;;;;3.57;0.70;;;19.20;1.00;;;;;;5038187;28;20443;-77
2021/09/17 09:52:51;;;;;;;2.00;0.90;;;19.00;1.00;;;;;;5053080;28;20572;-78
2021/09/17 09:55:18;;;;;;;1.90;0.70;;;18.90;1.00;;;;;;5055516;28;20439;-79
2021/09/17 09:57:47;;;;;;;2.43;0.70;;;18.90;1.00;;;;;;5055143;28;20502;-78
2021/09/17 10:00:15;;;;;;;2.10;0.73;;;18.90;1.00;;;;;;5055741;28;20448;-78
2021/09/17 10:02:44;;;;;;;2.50;0.70;;;18.70;1.00;;;;;;5050140;28;20475;-77
2021/09/17 10:05:13;;;;;;;2.30;0.93;;;18.50;1.00;;;;;;5052787;28;20462;-78
2021/09/17 10:07:41;;;;;;;1.60;0.60;;;18.30;1.00;;;;;;5050984;28;20959;-77
2021/09/17 10:10:11;;;;;;;2.63;1.00;;;18.30;1.00;;;;;;5054089;28;20546;-78
2021/09/17 10:12:39;;;;;;;2.27;0.70;;;18.30;1.00;;;;;;5053435;28;20502;-76
2021/09/17 10:15:07;;;;;;;1.63;0.73;;;18.30;1.00;;;;;;5071225;28;21480;-78
2021/09/17 10:17:36;;;;;;;1.60;0.70;;;18.40;1.00;;;;;;5056961;28;20504;-77
2021/09/17 10:20:07;;;;;;;1.37;0.70;;;18.40;1.00;;;;;;5054873;28;20449;-77
2021/09/17 10:22:35;;;;;;;2.27;0.80;;;18.40;1.00;;;;;;5053724;28;20565;-79
2021/09/17 10:25:16;;;;;;;2.20;0.80;;;18.50;1.00;;;;;;5056672;28;20412;-77
2021/09/17 10:27:45;;;;;;;3.13;2.07;;;18.50;1.00;;;;;;5052585;28;20459;-78
2021/09/17 10:30:14;;;;;;;3.20;0.87;;;18.80;1.00;;;;;;5054201;28;20409;-78
2021/09/17 10:32:50;;;;;;;4.37;0.80;;;19.00;1.00;;;;;;5051444;28;20469;-78
2021/09/17 10:35:19;;;;;;;4.50;0.63;;;19.20;1.00;;;;;;5053482;28;20523;-78
2021/09/17 10:38:02;;;;;;;3.10;1.30;;;19.30;1.00;;;;;;5056663;28;20543;-77
2021/09/17 10:40:44;;;;;;;1.50;1.00;;;19.10;1.00;;;;;;5061321;28;20495;-78
2021/09/17 10:43:17;;;;;;;1.60;1.00;;;19.00;1.00;;;;;;5068922;28;20482;-77
2021/09/17 10:45:45;;;;;;;1.50;0.80;;;18.90;1.00;;;;;;5051486;28;20412;-78
2021/09/17 10:48:13;;;;;;;2.53;1.00;;;18.70;1.00;;;;;;5059009;28;20475;-78
2021/09/17 10:50:43;;;;;;;2.00;1.30;;;18.50;1.00;;;;;;5055805;28;20482;-78
2021/09/17 10:53:11;;;;;;;2.10;0.60;;;18.40;1.00;;;;;;5052767;28;20468;-78
2021/09/17 10:56:04;;;;;;;3.90;1.30;;;18.20;1.00;;;;;;5057933;28;20463;-77
2021/09/17 10:58:33;;;;;;;1.97;1.07;;;18.00;1.00;;;;;;5053435;28;20444;-78
2021/09/17 11:01:01;;;;;;;3.73;1.20;;;17.80;1.00;;;;;;5051570;28;20444;-78
2021/09/17 11:03:57;;;;;;;2.60;1.23;;;17.60;1.00;;;;;;5052462;28;20479;-78
2021/09/17 11:06:26;;;;;;;3.70;1.90;;;17.40;1.00;;;;;;5054452;28;20440;-78
2021/09/17 11:08:55;;;;;;;2.60;0.70;;;17.40;1.00;;;;;;5059749;28;20439;-77
2021/09/17 11:11:25;;;;;;;1.83;0.83;;;17.50;1.00;;;;;;5056628;28;20481;-78
2021/09/17 11:13:54;;;;;;;4.17;0.80;;;17.60;1.00;;;;;;5054913;28;20477;-78
2021/09/17 11:16:22;;;;;;;2.40;1.13;;;17.70;1.00;;;;;;5055641;28;20570;-78
2021/09/17 11:18:59;;;;;;;2.27;1.37;;;17.90;1.00;;;;;;5062272;28;20447;-78
2021/09/17 11:21:28;;;;;;;1.70;0.60;;;18.00;1.00;;;;;;5055409;28;20459;-77
2021/09/17 11:23:54;;;;;;;2.90;0.80;;;18.30;1.00;;;;;;5055849;28;21105;-80
2021/09/17 11:26:26;;;;;;;3.30;1.40;;;18.50;1.00;;;;;;5062675;28;20538;-78
2021/09/17 11:29:01;;;;;;;1.40;0.70;;;18.50;1.00;;;;;;5062951;28;20442;-76
2021/09/17 11:31:32;;;;;;;2.57;0.87;;;18.40;1.00;;;;;;5053929;28;20447;-77
2021/09/17 11:33:59;;;;;;;2.83;0.93;;;18.40;1.00;;;;;;5056742;28;20471;-77
2021/09/17 11:36:41;;;;;;;2.40;1.67;;;18.30;1.00;;;;;;5053532;28;20464;-78
2021/09/17 11:39:13;;;;;;;2.60;1.70;;;18.20;1.00;;;;;;5052120;28;20528;-77
2021/09/17 11:41:43;;;;;;;1.50;0.70;;;18.20;1.00;;;;;;5057336;28;20538;-79
2021/09/17 11:44:09;;;;;;;4.83;0.80;;;18.10;1.00;;;;;;5068598;28;21307;-77
2021/09/17 11:46:37;;;;;;;2.47;1.30;;;18.00;1.00;;;;;;5068891;28;20486;-77
2021/09/17 11:49:04;;;;;;;1.63;0.90;;;17.90;1.00;;;;;;5066642;28;20465;-75
2021/09/17 11:51:30;;;;;;;1.70;0.90;;;17.80;1.00;;;;;;5066486;28;20466;-77
2021/09/17 11:53:57;;;;;;;3.63;1.47;;;17.90;1.00;;;;;;5069088;28;20456;-76
2021/09/17 11:56:24;;;;;;;2.47;0.90;;;18.10;1.00;;;;;;5065514;28;20459;-76
2021/09/17 11:58:52;;;;;;;1.70;0.70;;;18.10;1.00;;;;;;5065121;28;20440;-78
2021/09/17 12:01:19;;;;;;;2.87;0.60;;;18.00;1.00;;;;;;5066395;28;21038;-78
2021/09/17 12:03:47;;;;;;;1.70;0.83;;;17.70;1.00;;;;;;5059227;28;21347;-78
2021/09/17 12:06:17;;;;;;;1.60;0.90;;;17.50;1.00;;;;;;5056263;28;20447;-78
2021/09/17 12:08:45;;;;;;;2.30;0.97;;;17.30;1.00;;;;;;5061100;28;20457;-78
2021/09/17 12:11:13;;;;;;;1.90;0.70;;;17.20;1.00;;;;;;5062644;28;20456;-78
2021/09/17 12:13:41;;;;;;;1.77;0.83;;;17.20;1.00;;;;;;5053923;28;21301;-78
2021/09/17 12:16:11;;;;;;;2.00;0.63;;;17.20;1.00;;;;;;5058031;28;21392;-76
2021/09/17 12:18:38;;;;;;;2.10;1.00;;;17.30;1.00;;;;;;5058641;28;20769;-79
2021/09/17 12:21:05;;;;;;;2.40;0.90;;;17.40;1.00;;;;;;5056032;28;20577;-78
2021/09/17 12:23:36;;;;;;;1.93;0.63;;;17.50;1.00;;;;;;5053630;28;20473;-78
2021/09/17 12:26:08;;;;;;;2.80;0.70;;;17.70;1.00;;;;;;5056365;28;20579;-76
2021/09/17 12:28:35;;;;;;;4.00;0.90;;;17.80;1.00;;;;;;5062527;28;20502;-78
2021/09/17 12:31:02;;;;;;;1.50;0.50;;;17.90;1.00;;;;;;5054462;28;21057;-78
2021/09/17 12:33:32;;;;;;;1.50;0.70;;;17.80;1.00;;;;;;5054440;28;21403;-78
2021/09/17 12:36:08;;;;;;;2.27;1.00;;;17.60;1.00;;;;;;5059936;28;20459;-77
2021/09/17 12:38:35;;;;;;;2.03;0.50;;;17.60;1.00;;;;;;5065250;28;20410;-78
2021/09/17 12:41:01;;;;;;;2.27;0.57;;;17.60;1.00;;;;;;5068651;28;20490;-81
2021/09/17 12:43:29;;;;;;;2.90;0.60;;;17.70;1.00;;;;;;5073710;28;21448;-78
2021/09/17 12:45:59;;;;;;;2.00;0.60;;;17.80;1.00;;;;;;5053422;28;20415;-79
2021/09/17 12:48:25;;;;;;;2.37;0.80;;;17.90;1.00;;;;;;5056036;28;20447;-79
2021/09/17 12:50:53;;;;;;;2.23;1.27;;;18.10;1.00;;;;;;5060514;28;20457;-77
2021/09/17 12:53:22;;;;;;;1.50;0.90;;;18.40;1.00;;;;;;5052395;28;20472;-77
2021/09/17 12:56:00;;;;;;;1.83;0.63;;;18.60;1.00;;;;;;5054448;28;20548;-78
2021/09/17 12:58:30;;;;;;;2.70;1.50;;;18.60;1.00;;;;;;5057935;28;20450;-76
2021/09/17 13:00:57;;;;;;;2.13;1.00;;;18.60;1.00;;;;;;5063749;28;20462;-76
2021/09/17 13:03:24;;;;;;;2.27;0.60;;;18.60;1.00;;;;;;5057484;28;20511;-78